createdAt,value
2022-08-26T00:00:37.159Z,53.5
2022-08-26T00:01:43.267Z,53.5
2022-08-26T00:02:49.382Z,53.5
2022-08-26T00:03:55.520Z,53.5
2022-08-26T00:05:01.606Z,53.5
2022-08-26T00:06:07.719Z,53.5
2022-08-26T00:07:13.828Z,53.5
2022-08-26T00:08:18.964Z,53.5
2022-08-26T00:09:25.080Z,53.5
2022-08-26T00:10:31.191Z,53.5
2022-08-26T00:11:37.316Z,53.5
2022-08-26T00:12:43.431Z,53.5
2022-08-26T00:13:49.526Z,53.5
2022-08-26T00:14:55.645Z,53.5
2022-08-26T00:16:01.754Z,53.5
2022-08-26T00:17:07.889Z,53.5
2022-08-26T00:18:13.990Z,53.5
2022-08-26T00:19:20.095Z,53.5
2022-08-26T00:20:26.218Z,53
2022-08-26T00:21:32.335Z,53
2022-08-26T00:22:37.469Z,53
2022-08-26T00:23:43.588Z,53
2022-08-26T00:24:49.696Z,53
2022-08-26T00:25:55.800Z,53
2022-08-26T00:27:01.920Z,53
2022-08-26T00:28:08.034Z,53
2022-08-26T00:29:14.149Z,53
2022-08-26T00:30:20.263Z,53
2022-08-26T00:31:26.374Z,53
2022-08-26T00:32:32.487Z,53
2022-08-26T00:33:38.603Z,53
2022-08-26T00:34:44.723Z,53
2022-08-26T00:35:50.837Z,53
2022-08-26T00:36:55.953Z,53
2022-08-26T00:38:02.071Z,53
2022-08-26T00:39:08.181Z,53
2022-08-26T00:40:14.292Z,53
2022-08-26T00:41:20.412Z,53
2022-08-26T00:42:26.527Z,53
2022-08-26T00:43:32.638Z,53
2022-08-26T00:44:38.756Z,53
2022-08-26T00:45:44.865Z,53
2022-08-26T00:46:50.988Z,53
2022-08-26T00:47:57.117Z,53
2022-08-26T00:49:03.210Z,53
2022-08-26T00:50:09.332Z,53
2022-08-26T00:51:14.453Z,53
2022-08-26T00:52:20.576Z,53
2022-08-26T00:53:26.681Z,53
2022-08-26T00:54:32.785Z,53
2022-08-26T00:55:38.913Z,53
2022-08-26T00:56:45.022Z,53
2022-08-26T00:57:51.153Z,53
2022-08-26T00:58:57.260Z,53
2022-08-26T01:00:03.360Z,53
2022-08-26T01:01:09.477Z,53
2022-08-26T01:02:15.595Z,53
2022-08-26T01:03:21.708Z,53
2022-08-26T01:04:27.826Z,53
2022-08-26T01:05:32.956Z,53
2022-08-26T01:06:39.069Z,53
2022-08-26T01:07:45.174Z,53
2022-08-26T01:08:51.313Z,53
2022-08-26T01:09:57.419Z,53
2022-08-26T01:11:03.516Z,53
2022-08-26T01:12:09.640Z,53
2022-08-26T01:13:15.758Z,53
2022-08-26T01:14:21.862Z,53
2022-08-26T01:15:27.990Z,53
2022-08-26T01:16:34.090Z,53
2022-08-26T01:17:40.208Z,53
2022-08-26T01:18:46.320Z,53
2022-08-26T01:19:51.448Z,53
2022-08-26T01:20:57.559Z,53
2022-08-26T01:22:03.668Z,53
2022-08-26T01:23:09.791Z,53
2022-08-26T01:24:15.896Z,53
2022-08-26T01:25:22.027Z,53
2022-08-26T01:26:28.125Z,53
2022-08-26T01:27:34.238Z,53
2022-08-26T01:28:40.360Z,53
2022-08-26T01:29:46.481Z,53
2022-08-26T01:30:52.602Z,53
2022-08-26T01:31:58.700Z,53
2022-08-26T01:33:04.810Z,53
2022-08-26T01:34:09.938Z,53
2022-08-26T01:35:16.058Z,53
2022-08-26T01:36:22.179Z,53
2022-08-26T01:37:28.286Z,53
2022-08-26T01:38:34.398Z,53
2022-08-26T01:39:40.518Z,53
2022-08-26T01:40:46.648Z,53
2022-08-26T01:41:52.744Z,53
2022-08-26T01:42:58.843Z,53
2022-08-26T01:44:04.960Z,53
2022-08-26T01:45:11.078Z,53
2022-08-26T01:46:17.190Z,53
2022-08-26T01:47:23.307Z,53
2022-08-26T01:48:28.440Z,53
2022-08-26T01:49:34.544Z,53
2022-08-26T01:50:40.683Z,53
2022-08-26T01:51:46.786Z,53
2022-08-26T01:52:52.898Z,53
2022-08-26T01:53:59.014Z,53
2022-08-26T01:55:05.116Z,53
2022-08-26T01:56:11.257Z,53
2022-08-26T01:57:17.361Z,53
2022-08-26T01:58:23.455Z,53
2022-08-26T01:59:29.578Z,53
2022-08-26T02:00:35.693Z,53
2022-08-26T02:01:41.805Z,53
2022-08-26T02:02:46.930Z,53
2022-08-26T02:03:53.047Z,53
2022-08-26T02:04:59.154Z,53
2022-08-26T02:06:05.274Z,53
2022-08-26T02:07:11.390Z,53
2022-08-26T02:08:17.508Z,53
2022-08-26T02:09:23.620Z,53
2022-08-26T02:10:29.725Z,53
2022-08-26T02:11:35.842Z,53
2022-08-26T02:12:41.961Z,53
2022-08-26T02:13:48.085Z,53
2022-08-26T02:14:54.190Z,53
2022-08-26T02:16:00.321Z,53
2022-08-26T02:17:05.427Z,53
2022-08-26T02:18:11.545Z,53
2022-08-26T02:19:17.661Z,53
2022-08-26T02:20:23.774Z,53
2022-08-26T02:21:29.889Z,53
2022-08-26T02:22:36.006Z,53
2022-08-26T02:23:42.121Z,53
2022-08-26T02:24:48.227Z,53
2022-08-26T02:25:54.354Z,53
2022-08-26T02:27:00.463Z,53
2022-08-26T02:28:06.568Z,53
2022-08-26T02:29:12.679Z,53
2022-08-26T02:30:18.807Z,53
2022-08-26T02:31:23.930Z,53
2022-08-26T02:32:30.039Z,53
2022-08-26T02:33:36.157Z,53
2022-08-26T02:34:42.272Z,53
2022-08-26T02:35:48.384Z,53
2022-08-26T02:36:54.497Z,53
2022-08-26T02:38:00.614Z,53
2022-08-26T02:39:06.727Z,53
2022-08-26T02:40:12.834Z,53
2022-08-26T02:41:18.946Z,53
2022-08-26T02:42:25.061Z,53
2022-08-26T02:43:31.182Z,53
2022-08-26T02:44:37.291Z,53
2022-08-26T02:45:42.427Z,53
2022-08-26T02:46:48.536Z,53
2022-08-26T02:47:54.653Z,53
2022-08-26T02:49:00.759Z,53
2022-08-26T02:50:06.876Z,53
2022-08-26T02:51:12.992Z,53
2022-08-26T02:52:19.102Z,53
2022-08-26T02:53:25.231Z,53
2022-08-26T02:54:31.340Z,53
2022-08-26T02:55:37.449Z,53
2022-08-26T02:56:43.569Z,53
2022-08-26T02:57:49.672Z,53
2022-08-26T02:58:55.786Z,53
2022-08-26T03:00:00.931Z,53
2022-08-26T03:01:07.041Z,53
2022-08-26T03:02:13.140Z,53
2022-08-26T03:03:19.263Z,53
2022-08-26T03:04:25.381Z,53
2022-08-26T03:05:31.506Z,53
2022-08-26T03:06:37.598Z,53
2022-08-26T03:07:43.713Z,53
2022-08-26T03:08:49.830Z,53
2022-08-26T03:09:55.946Z,53
2022-08-26T03:11:02.054Z,53
2022-08-26T03:12:08.172Z,53
2022-08-26T03:13:14.289Z,53
2022-08-26T03:14:19.418Z,53
2022-08-26T03:15:25.532Z,53
2022-08-26T03:16:31.639Z,53
2022-08-26T03:17:37.753Z,53
2022-08-26T03:18:43.870Z,53
2022-08-26T03:19:49.985Z,53
2022-08-26T03:20:56.092Z,53
2022-08-26T03:22:02.212Z,53
2022-08-26T03:23:08.328Z,53
2022-08-26T03:24:14.437Z,53
2022-08-26T03:25:20.549Z,53
2022-08-26T03:26:26.672Z,53
2022-08-26T03:27:32.781Z,53
2022-08-26T03:28:37.911Z,53
2022-08-26T03:29:44.027Z,53
2022-08-26T03:30:50.175Z,53
2022-08-26T03:31:56.249Z,53
2022-08-26T03:33:02.366Z,53
2022-08-26T03:34:08.487Z,53
2022-08-26T03:35:13.641Z,53
2022-08-26T03:36:19.734Z,53
2022-08-26T03:37:25.844Z,53
2022-08-26T03:38:31.960Z,53
2022-08-26T03:39:38.080Z,53
2022-08-26T03:40:44.191Z,53
2022-08-26T03:41:50.297Z,53
2022-08-26T03:42:56.418Z,53
2022-08-26T03:44:02.527Z,53
2022-08-26T03:45:08.642Z,53
2022-08-26T03:46:14.778Z,53
2022-08-26T03:47:20.864Z,53
2022-08-26T03:48:26.982Z,53
2022-08-26T03:49:32.131Z,53
2022-08-26T03:50:38.220Z,53
2022-08-26T03:51:44.352Z,53
2022-08-26T03:52:50.468Z,53
2022-08-26T03:53:56.566Z,53
2022-08-26T03:55:02.679Z,53
2022-08-26T03:56:08.802Z,53
2022-08-26T03:57:14.906Z,53
2022-08-26T03:58:21.021Z,53
2022-08-26T03:59:27.138Z,53
2022-08-26T04:00:33.247Z,53
2022-08-26T04:01:39.375Z,53
2022-08-26T04:02:45.473Z,53
2022-08-26T04:03:50.607Z,53
2022-08-26T04:04:56.726Z,53
2022-08-26T04:07:08.952Z,53
2022-08-26T04:08:15.057Z,53
2022-08-26T04:09:21.175Z,53
2022-08-26T04:10:27.290Z,53
2022-08-26T04:11:33.403Z,53
2022-08-26T04:12:39.514Z,53
2022-08-26T04:13:45.629Z,53
2022-08-26T04:14:51.749Z,53
2022-08-26T04:15:57.859Z,53
2022-08-26T04:17:03.971Z,53
2022-08-26T04:18:09.109Z,53
2022-08-26T04:19:15.214Z,53
2022-08-26T04:20:21.345Z,53
2022-08-26T04:21:27.464Z,53
2022-08-26T04:22:33.557Z,53
2022-08-26T04:23:39.669Z,53
2022-08-26T04:24:45.792Z,53
2022-08-26T04:25:51.897Z,53
2022-08-26T04:26:58.024Z,53
2022-08-26T04:28:04.126Z,53
2022-08-26T04:29:10.242Z,53
2022-08-26T04:30:16.356Z,53
2022-08-26T04:31:22.466Z,53
2022-08-26T04:32:27.604Z,53
2022-08-26T04:33:33.712Z,53
2022-08-26T04:34:39.830Z,53
2022-08-26T04:35:45.942Z,53
2022-08-26T04:36:52.056Z,53
2022-08-26T04:37:58.173Z,53
2022-08-26T04:39:04.282Z,53
2022-08-26T04:40:10.392Z,53
2022-08-26T04:41:16.505Z,53
2022-08-26T04:42:22.624Z,53
2022-08-26T04:43:28.737Z,53
2022-08-26T04:44:34.850Z,53
2022-08-26T04:45:40.969Z,53
2022-08-26T04:46:46.099Z,53
2022-08-26T04:47:52.228Z,53
2022-08-26T04:48:58.319Z,53
2022-08-26T04:50:04.437Z,53
2022-08-26T04:51:10.556Z,53
2022-08-26T04:52:16.664Z,53
2022-08-26T04:53:22.782Z,53
2022-08-26T04:54:28.893Z,53
2022-08-26T04:55:35.008Z,53
2022-08-26T04:56:41.118Z,53
2022-08-26T04:57:47.231Z,53
2022-08-26T04:58:53.350Z,53
2022-08-26T04:59:59.464Z,53
2022-08-26T05:01:04.589Z,53
2022-08-26T05:02:10.706Z,53
2022-08-26T05:03:16.834Z,53
2022-08-26T05:04:22.932Z,53
2022-08-26T05:05:29.041Z,53
2022-08-26T05:06:35.163Z,53
2022-08-26T05:07:41.275Z,53
2022-08-26T05:08:47.391Z,53
2022-08-26T05:09:53.505Z,53
2022-08-26T05:10:59.617Z,53
2022-08-26T05:12:05.735Z,53
2022-08-26T05:13:11.845Z,53
2022-08-26T05:14:17.956Z,53
2022-08-26T05:15:23.093Z,53
2022-08-26T05:16:29.200Z,53
2022-08-26T05:17:35.312Z,53
2022-08-26T05:18:41.425Z,53
2022-08-26T05:19:47.544Z,53
2022-08-26T05:20:53.654Z,53
2022-08-26T05:21:59.771Z,53
2022-08-26T05:23:05.880Z,53
2022-08-26T05:24:11.995Z,53
2022-08-26T05:25:18.110Z,53
2022-08-26T05:26:24.227Z,53
2022-08-26T05:27:30.336Z,53
2022-08-26T05:28:36.458Z,53
2022-08-26T05:29:41.593Z,53
2022-08-26T05:30:47.699Z,53
2022-08-26T05:31:53.806Z,53
2022-08-26T05:32:59.928Z,53
2022-08-26T05:34:06.042Z,53
2022-08-26T05:35:12.146Z,53
2022-08-26T05:36:18.263Z,53
2022-08-26T05:37:24.381Z,53
2022-08-26T05:38:30.497Z,53
2022-08-26T05:39:36.606Z,53
2022-08-26T05:40:42.723Z,53
2022-08-26T05:41:48.831Z,53
2022-08-26T05:42:54.959Z,53
2022-08-26T05:44:00.078Z,53
2022-08-26T05:45:06.195Z,53
2022-08-26T05:46:12.330Z,53.5
2022-08-26T05:47:18.422Z,53.5
2022-08-26T05:48:24.545Z,53.5
2022-08-26T05:49:30.646Z,53.5
2022-08-26T05:50:36.766Z,53.5
2022-08-26T05:51:42.880Z,53.5
2022-08-26T05:52:48.989Z,53.5
2022-08-26T05:53:55.101Z,53.5
2022-08-26T05:55:01.219Z,53.5
2022-08-26T05:56:07.338Z,53.5
2022-08-26T05:57:13.450Z,53.5
2022-08-26T05:58:18.583Z,53.5
2022-08-26T05:59:24.693Z,53.5
2022-08-26T06:00:30.805Z,53.5
2022-08-26T06:01:36.915Z,53.5
2022-08-26T06:02:43.034Z,53.5
2022-08-26T06:03:49.155Z,53.5
2022-08-26T06:04:55.258Z,53.5
2022-08-26T06:06:01.375Z,53.5
2022-08-26T06:07:07.486Z,54
2022-08-26T06:08:13.608Z,54
2022-08-26T06:09:19.716Z,54
2022-08-26T06:10:25.826Z,54
2022-08-26T06:11:31.944Z,54
2022-08-26T06:12:37.071Z,54
2022-08-26T06:13:43.182Z,54
2022-08-26T06:14:49.311Z,54
2022-08-26T06:15:55.426Z,54
2022-08-26T06:17:01.552Z,54
2022-08-26T06:18:07.640Z,54
2022-08-26T06:19:13.756Z,54
2022-08-26T06:20:19.873Z,54
2022-08-26T06:21:25.981Z,54
2022-08-26T06:22:32.104Z,54
2022-08-26T06:23:38.205Z,54
2022-08-26T06:24:44.330Z,54
2022-08-26T06:25:50.443Z,54
2022-08-26T06:26:55.589Z,54
2022-08-26T06:28:01.680Z,54
2022-08-26T06:29:07.796Z,54
2022-08-26T06:30:13.919Z,54
2022-08-26T06:31:20.030Z,54
2022-08-26T06:32:26.131Z,54
2022-08-26T06:33:32.251Z,54
2022-08-26T06:34:38.374Z,54
2022-08-26T06:35:44.479Z,54
2022-08-26T06:36:50.597Z,54
2022-08-26T06:37:56.718Z,54
2022-08-26T06:39:02.822Z,54.5
2022-08-26T06:40:08.941Z,54.5
2022-08-26T06:41:14.067Z,54.5
2022-08-26T06:42:20.177Z,54.5
2022-08-26T06:43:26.288Z,54.5
2022-08-26T06:44:32.413Z,54.5
2022-08-26T06:45:38.521Z,54.5
2022-08-26T06:46:44.638Z,54.5
2022-08-26T06:47:50.749Z,54.5
2022-08-26T06:48:56.863Z,54.5
2022-08-26T06:50:02.980Z,54.5
2022-08-26T06:51:09.097Z,54.5
2022-08-26T06:52:15.209Z,54.5
2022-08-26T06:53:21.317Z,54.5
2022-08-26T06:54:27.433Z,54.5
2022-08-26T06:55:32.570Z,54.5
2022-08-26T06:56:38.690Z,54.5
2022-08-26T06:57:44.794Z,54.5
2022-08-26T06:58:50.903Z,54.5
2022-08-26T06:59:57.019Z,54.5
2022-08-26T07:01:03.130Z,54.5
2022-08-26T07:02:09.249Z,54.5
2022-08-26T07:03:15.369Z,54.5
2022-08-26T07:04:21.472Z,54.5
2022-08-26T07:05:27.602Z,54.5
2022-08-26T07:06:33.702Z,54.5
2022-08-26T07:07:39.816Z,54.5
2022-08-26T07:08:45.934Z,54.5
2022-08-26T07:09:51.063Z,54.5
2022-08-26T07:10:57.168Z,54.5
2022-08-26T07:12:03.284Z,54.5
2022-08-26T07:13:09.394Z,54.5
2022-08-26T07:14:15.518Z,54.5
2022-08-26T07:15:21.624Z,54.5
2022-08-26T07:16:26.764Z,54.5
2022-08-26T07:17:32.888Z,54.5
2022-08-26T07:18:38.993Z,54.5
2022-08-26T07:19:45.104Z,54.5
2022-08-26T07:20:51.231Z,54.5
2022-08-26T07:21:57.333Z,54.5
2022-08-26T07:23:03.447Z,54.5
2022-08-26T07:24:09.565Z,54.5
2022-08-26T07:25:15.700Z,54.5
2022-08-26T07:26:21.779Z,54.5
2022-08-26T07:27:27.902Z,54.5
2022-08-26T07:28:34.023Z,54.5
2022-08-26T07:29:40.146Z,54.5
2022-08-26T07:30:45.263Z,54.5
2022-08-26T07:31:51.398Z,54.5
2022-08-26T07:32:57.495Z,54.5
2022-08-26T07:34:03.612Z,54.5
2022-08-26T07:35:09.729Z,54.5
2022-08-26T07:36:15.836Z,54.5
2022-08-26T07:37:21.954Z,54.5
2022-08-26T07:38:28.067Z,54.5
2022-08-26T07:39:34.182Z,55
2022-08-26T07:41:46.426Z,55
2022-08-26T07:42:52.551Z,55
2022-08-26T07:43:58.641Z,55
2022-08-26T07:45:03.781Z,55
2022-08-26T07:46:09.872Z,55
2022-08-26T07:47:15.997Z,55
2022-08-26T07:48:22.109Z,55
2022-08-26T07:49:28.225Z,55
2022-08-26T07:50:34.327Z,55
2022-08-26T07:51:40.453Z,55
2022-08-26T07:52:46.564Z,55
2022-08-26T07:53:52.672Z,55
2022-08-26T07:54:58.789Z,55
2022-08-26T07:56:04.895Z,55
2022-08-26T07:57:11.012Z,55
2022-08-26T07:58:17.124Z,55
2022-08-26T07:59:22.261Z,55
2022-08-26T08:00:28.369Z,55
2022-08-26T08:01:34.488Z,55
2022-08-26T08:02:40.598Z,55
2022-08-26T08:03:46.714Z,55
2022-08-26T08:04:52.831Z,55
2022-08-26T08:05:58.946Z,55
2022-08-26T08:07:05.053Z,55
2022-08-26T08:08:11.176Z,55
2022-08-26T08:09:17.290Z,55
2022-08-26T08:10:23.395Z,55
2022-08-26T08:11:29.522Z,55
2022-08-26T08:12:35.630Z,55
2022-08-26T08:13:40.751Z,55
2022-08-26T08:14:46.862Z,55
2022-08-26T08:15:52.983Z,55
2022-08-26T08:16:59.098Z,55
2022-08-26T08:18:05.242Z,55
2022-08-26T08:19:11.323Z,55
2022-08-26T08:20:17.435Z,55
2022-08-26T08:21:23.567Z,55
2022-08-26T08:22:29.676Z,55
2022-08-26T08:23:35.787Z,55
2022-08-26T08:24:41.892Z,55
2022-08-26T08:25:48.000Z,55
2022-08-26T08:26:54.134Z,55
2022-08-26T08:27:59.252Z,55
2022-08-26T08:29:05.362Z,55
2022-08-26T08:30:11.470Z,55
2022-08-26T08:31:17.583Z,55
2022-08-26T08:32:23.735Z,55
2022-08-26T08:33:29.814Z,55
2022-08-26T08:34:35.929Z,55
2022-08-26T08:35:42.043Z,55
2022-08-26T08:36:48.159Z,55
2022-08-26T08:37:54.274Z,55
2022-08-26T08:39:00.382Z,55
2022-08-26T08:40:06.494Z,55
2022-08-26T08:41:12.621Z,55
2022-08-26T08:42:17.750Z,55
2022-08-26T08:43:23.876Z,55
2022-08-26T08:44:29.982Z,55
2022-08-26T08:45:36.087Z,55
2022-08-26T08:46:42.194Z,55
2022-08-26T08:47:48.310Z,55
2022-08-26T08:48:54.425Z,55
2022-08-26T08:50:00.541Z,55
2022-08-26T08:51:06.652Z,55
2022-08-26T08:52:12.771Z,55
2022-08-26T08:53:18.878Z,55
2022-08-26T08:54:25.011Z,55
2022-08-26T08:55:31.117Z,55
2022-08-26T08:56:36.237Z,55
2022-08-26T08:57:42.360Z,55
2022-08-26T08:58:48.464Z,55
2022-08-26T08:59:54.592Z,55
2022-08-26T09:01:00.700Z,55
2022-08-26T09:02:06.811Z,55
2022-08-26T09:03:12.920Z,55
2022-08-26T09:04:19.038Z,55
2022-08-26T09:05:25.172Z,55
2022-08-26T09:06:31.277Z,55
2022-08-26T09:07:37.379Z,55
2022-08-26T09:08:43.485Z,55
2022-08-26T09:09:49.614Z,55
2022-08-26T09:10:54.741Z,55
2022-08-26T09:13:06.961Z,55.5
2022-08-26T09:14:13.074Z,55.5
2022-08-26T09:15:19.191Z,55.5
2022-08-26T09:16:25.309Z,55.5
2022-08-26T09:18:37.539Z,55.5
2022-08-26T09:19:43.652Z,55.5
2022-08-26T09:20:49.765Z,55.5
2022-08-26T09:21:55.884Z,55.5
2022-08-26T09:23:01.992Z,55.5
2022-08-26T09:24:08.122Z,55.5
2022-08-26T09:25:13.265Z,55.5
2022-08-26T09:26:19.352Z,55.5
2022-08-26T09:27:25.452Z,55.5
2022-08-26T09:28:31.571Z,55.5
2022-08-26T09:29:37.703Z,55.5
2022-08-26T09:30:43.806Z,55.5
2022-08-26T09:31:49.920Z,55.5
2022-08-26T09:32:56.031Z,55.5
2022-08-26T09:34:02.146Z,55.5
2022-08-26T09:35:08.269Z,55.5
2022-08-26T09:36:14.385Z,55.5
2022-08-26T09:37:20.490Z,55.5
2022-08-26T09:38:26.590Z,55.5
2022-08-26T09:39:31.733Z,55.5
2022-08-26T09:40:37.845Z,55.5
2022-08-26T09:41:43.961Z,55.5
2022-08-26T09:42:50.063Z,55.5
2022-08-26T09:43:56.196Z,55.5
2022-08-26T09:45:02.289Z,55.5
2022-08-26T09:46:08.400Z,55.5
2022-08-26T09:47:14.519Z,55.5
2022-08-26T09:48:20.649Z,55.5
2022-08-26T09:49:26.767Z,55.5
2022-08-26T09:50:32.895Z,55.5
2022-08-26T09:51:38.987Z,55.5
2022-08-26T09:52:45.093Z,55.5
2022-08-26T09:53:50.238Z,55.5
2022-08-26T09:54:56.347Z,55.5
2022-08-26T09:56:02.467Z,55.5
2022-08-26T09:57:08.576Z,55.5
2022-08-26T09:58:14.700Z,55.5
2022-08-26T09:59:20.790Z,56
2022-08-26T10:00:26.922Z,56
2022-08-26T10:01:33.026Z,56
2022-08-26T10:02:39.139Z,56
2022-08-26T10:03:45.252Z,56
2022-08-26T10:04:51.359Z,56
2022-08-26T10:05:57.478Z,56
2022-08-26T10:07:03.583Z,55.5
2022-08-26T10:08:08.734Z,56
2022-08-26T10:09:14.845Z,56
2022-08-26T10:10:20.948Z,56
2022-08-26T10:11:27.073Z,56
2022-08-26T10:12:33.180Z,56
2022-08-26T10:13:39.292Z,56
2022-08-26T10:14:45.414Z,56
2022-08-26T10:15:51.529Z,56
2022-08-26T10:16:57.637Z,56
2022-08-26T10:18:03.760Z,55.5
2022-08-26T10:19:09.873Z,56
2022-08-26T10:20:15.985Z,56
2022-08-26T10:21:22.096Z,56
2022-08-26T10:22:27.224Z,56
2022-08-26T10:23:33.341Z,56
2022-08-26T10:25:45.564Z,56
2022-08-26T10:26:51.677Z,56
2022-08-26T10:27:57.793Z,56
2022-08-26T10:29:03.902Z,56
2022-08-26T10:30:10.020Z,56
2022-08-26T10:32:22.247Z,56
2022-08-26T10:33:28.363Z,56
2022-08-26T10:34:34.497Z,56
2022-08-26T10:35:40.594Z,56
2022-08-26T10:37:51.829Z,56
2022-08-26T10:40:03.093Z,56
2022-08-26T10:41:08.223Z,56
2022-08-26T10:42:13.347Z,56
2022-08-26T10:43:18.488Z,56
2022-08-26T10:44:23.616Z,56
2022-08-26T10:45:29.729Z,56
2022-08-26T10:46:35.844Z,56
2022-08-26T10:47:41.959Z,56
2022-08-26T10:48:48.071Z,56
2022-08-26T10:49:54.191Z,56
2022-08-26T10:51:00.311Z,56
2022-08-26T10:52:06.417Z,56
2022-08-26T10:53:12.528Z,56
2022-08-26T10:54:18.637Z,56
2022-08-26T10:55:23.780Z,56
2022-08-26T10:56:28.909Z,56
2022-08-26T10:57:34.053Z,56
2022-08-26T10:58:39.182Z,56
2022-08-26T10:59:45.295Z,56
2022-08-26T11:00:51.410Z,56
2022-08-26T11:01:57.525Z,56
2022-08-26T11:03:03.646Z,56
2022-08-26T11:04:09.756Z,56
2022-08-26T11:05:15.863Z,56
2022-08-26T11:06:21.984Z,56
2022-08-26T11:07:28.098Z,56
2022-08-26T11:08:34.212Z,56
2022-08-26T11:09:40.326Z,56
2022-08-26T11:10:46.447Z,56
2022-08-26T11:11:52.562Z,56
2022-08-26T11:12:57.676Z,56
2022-08-26T11:14:03.806Z,56.5
2022-08-26T11:15:09.925Z,56.5
2022-08-26T11:16:16.017Z,56.5
2022-08-26T11:17:22.131Z,56
2022-08-26T11:18:28.247Z,56
2022-08-26T11:19:34.373Z,56.5
2022-08-26T11:20:39.530Z,56.5
2022-08-26T11:21:44.629Z,56.5
2022-08-26T11:22:50.744Z,56.5
2022-08-26T11:23:56.872Z,56.5
2022-08-26T11:25:02.982Z,56.5
2022-08-26T11:26:09.089Z,56.5
2022-08-26T11:27:15.192Z,56.5
2022-08-26T11:28:21.318Z,56.5
2022-08-26T11:29:27.425Z,56.5
2022-08-26T11:30:33.539Z,56.5
2022-08-26T11:31:39.659Z,56.5
2022-08-26T11:32:45.773Z,56.5
2022-08-26T11:33:51.880Z,56.5
2022-08-26T11:34:57.998Z,56.5
2022-08-26T11:36:03.123Z,56.5
2022-08-26T11:37:09.238Z,56.5
2022-08-26T11:38:15.348Z,56.5
2022-08-26T11:39:21.477Z,56.5
2022-08-26T11:40:27.591Z,56.5
2022-08-26T11:41:33.693Z,56.5
2022-08-26T11:42:39.809Z,56.5
2022-08-26T11:43:44.959Z,57
2022-08-26T11:44:50.069Z,56.5
2022-08-26T11:45:56.191Z,56.5
2022-08-26T11:47:02.301Z,57
2022-08-26T11:48:08.420Z,56.5
2022-08-26T11:49:14.554Z,57
2022-08-26T11:51:26.765Z,57
2022-08-26T11:52:32.889Z,57
2022-08-26T11:53:38.977Z,57
2022-08-26T11:54:45.117Z,57
2022-08-26T11:55:51.214Z,57
2022-08-26T11:56:57.335Z,57
2022-08-26T11:58:03.444Z,57
2022-08-26T12:00:14.690Z,57
2022-08-26T12:01:19.828Z,57
2022-08-26T12:02:24.944Z,57
2022-08-26T12:04:36.205Z,57
2022-08-26T12:05:41.338Z,57
2022-08-26T12:06:46.461Z,57
2022-08-26T12:07:51.615Z,57
2022-08-26T12:08:56.743Z,57
2022-08-26T12:10:02.846Z,57
2022-08-26T12:11:08.962Z,57
2022-08-26T12:12:15.083Z,57
2022-08-26T12:13:21.188Z,57
2022-08-26T12:15:33.410Z,57
2022-08-26T12:16:39.536Z,57.5
2022-08-26T12:17:45.648Z,57
2022-08-26T12:18:51.780Z,57
2022-08-26T12:19:57.871Z,57
2022-08-26T12:21:03.995Z,57
2022-08-26T12:22:10.121Z,57
2022-08-26T12:23:15.232Z,57.5
2022-08-26T12:24:21.339Z,57.5
2022-08-26T12:25:27.457Z,57.5
2022-08-26T12:26:33.564Z,57.5
2022-08-26T12:27:39.687Z,57
2022-08-26T12:28:45.795Z,57
2022-08-26T12:29:51.928Z,57.5
2022-08-26T12:30:58.020Z,57
2022-08-26T12:32:03.173Z,57
2022-08-26T12:33:08.294Z,57.5
2022-08-26T12:34:13.427Z,57
2022-08-26T12:35:18.564Z,57
2022-08-26T12:36:24.692Z,57
2022-08-26T12:37:30.815Z,57
2022-08-26T12:38:36.910Z,57
2022-08-26T12:39:43.018Z,57
2022-08-26T12:40:49.130Z,57
2022-08-26T12:41:55.246Z,57
2022-08-26T12:43:01.352Z,57
2022-08-26T12:44:07.460Z,57
2022-08-26T12:45:13.572Z,56.5
2022-08-26T12:47:25.816Z,56.5
2022-08-26T12:48:31.927Z,56.5
2022-08-26T12:49:37.050Z,57
2022-08-26T12:50:43.165Z,56.5
2022-08-26T12:51:49.273Z,56.5
2022-08-26T12:52:55.385Z,56.5
2022-08-26T12:54:01.581Z,56.5
2022-08-26T12:55:07.618Z,56.5
2022-08-26T12:56:13.730Z,56.5
2022-08-26T12:57:19.845Z,56.5
2022-08-26T12:58:24.984Z,56.5
2022-08-26T12:59:30.129Z,56.5
2022-08-26T13:00:36.228Z,56.5
2022-08-26T13:01:42.345Z,56.5
2022-08-26T13:02:48.454Z,56.5
2022-08-26T13:03:54.573Z,56.5
2022-08-26T13:05:00.691Z,56.5
2022-08-26T13:06:06.803Z,56.5
2022-08-26T13:07:12.915Z,56.5
2022-08-26T13:08:19.059Z,56.5
2022-08-26T13:09:25.194Z,56.5
2022-08-26T13:10:31.249Z,56.5
2022-08-26T13:11:37.379Z,56.5
2022-08-26T13:12:43.493Z,56.5
2022-08-26T13:13:48.618Z,56.5
2022-08-26T13:14:54.731Z,56.5
2022-08-26T13:16:00.840Z,56.5
2022-08-26T13:17:06.957Z,56.5
2022-08-26T13:18:13.071Z,56.5
2022-08-26T13:19:19.182Z,56.5
2022-08-26T13:20:25.294Z,56.5
2022-08-26T13:21:30.440Z,56.5
2022-08-26T13:22:35.577Z,56.5
2022-08-26T13:23:41.675Z,56.5
2022-08-26T13:24:47.790Z,56
2022-08-26T13:25:53.926Z,56.5
2022-08-26T13:27:00.018Z,56.5
2022-08-26T13:28:06.134Z,56.5
2022-08-26T13:29:12.255Z,56.5
2022-08-26T13:30:18.358Z,56.5
2022-08-26T13:31:24.473Z,56.5
2022-08-26T13:32:30.608Z,56.5
2022-08-26T13:33:36.700Z,56.5
2022-08-26T13:34:42.812Z,56.5
2022-08-26T13:35:48.931Z,56.5
2022-08-26T13:36:54.065Z,56.5
2022-08-26T13:38:00.179Z,56.5
2022-08-26T13:39:06.281Z,56.5
2022-08-26T13:40:12.398Z,56.5
2022-08-26T13:41:18.512Z,56.5
2022-08-26T13:42:24.618Z,56.5
2022-08-26T13:43:30.738Z,56.5
2022-08-26T13:44:35.882Z,56.5
2022-08-26T13:45:41.000Z,56.5
2022-08-26T13:46:47.118Z,56.5
2022-08-26T13:47:53.234Z,56.5
2022-08-26T13:48:59.358Z,56.5
2022-08-26T13:50:05.452Z,56.5
2022-08-26T13:51:11.568Z,56.5
2022-08-26T13:52:17.693Z,56.5
2022-08-26T13:53:23.821Z,56.5
2022-08-26T13:54:29.915Z,56.5
2022-08-26T13:55:36.038Z,56.5
2022-08-26T13:56:42.155Z,56.5
2022-08-26T13:57:48.269Z,56.5
2022-08-26T13:58:54.368Z,56.5
2022-08-26T13:59:59.519Z,56.5
2022-08-26T14:01:05.613Z,56.5
2022-08-26T14:02:11.731Z,56.5
2022-08-26T14:03:17.884Z,56.5
2022-08-26T14:04:23.966Z,56.5
2022-08-26T14:05:30.084Z,56.5
2022-08-26T14:06:36.229Z,56.5
2022-08-26T14:07:41.353Z,56.5
2022-08-26T14:08:46.470Z,56.5
2022-08-26T14:09:51.602Z,56.5
2022-08-26T14:10:56.755Z,56.5
2022-08-26T14:12:01.854Z,56.5
2022-08-26T14:13:07.975Z,57
2022-08-26T14:14:13.096Z,57
2022-08-26T14:15:19.211Z,56.5
2022-08-26T14:16:25.324Z,56.5
2022-08-26T14:17:31.450Z,57
2022-08-26T14:18:37.557Z,56.5
2022-08-26T14:19:43.666Z,56.5
2022-08-26T14:20:49.781Z,56.5
2022-08-26T14:21:55.906Z,56.5
2022-08-26T14:24:08.130Z,57
2022-08-26T14:25:14.242Z,57
2022-08-26T14:26:20.349Z,57
2022-08-26T14:27:26.483Z,57
2022-08-26T14:28:31.603Z,57
2022-08-26T14:29:37.713Z,57
2022-08-26T14:31:49.951Z,57
2022-08-26T14:32:55.076Z,57
2022-08-26T14:34:00.212Z,57
2022-08-26T14:35:06.327Z,57
2022-08-26T14:36:11.453Z,57
2022-08-26T14:37:16.581Z,57
2022-08-26T14:38:21.711Z,57
2022-08-26T14:39:27.839Z,57
2022-08-26T14:40:33.947Z,57
2022-08-26T14:41:40.062Z,57
2022-08-26T14:42:46.176Z,57
2022-08-26T14:43:52.291Z,57
2022-08-26T14:46:04.534Z,57
2022-08-26T14:47:10.657Z,57
2022-08-26T14:48:16.742Z,57
2022-08-26T14:49:22.869Z,57
2022-08-26T14:50:28.972Z,57
2022-08-26T14:51:35.095Z,57
2022-08-26T14:52:40.218Z,57
2022-08-26T14:53:46.335Z,57
2022-08-26T14:54:52.449Z,57
2022-08-26T14:55:58.567Z,57
2022-08-26T14:57:04.671Z,57
2022-08-26T14:58:10.797Z,57
2022-08-26T14:59:16.898Z,57
2022-08-26T15:00:22.034Z,57
2022-08-26T15:01:27.171Z,57
2022-08-26T15:02:33.279Z,57.5
2022-08-26T15:03:39.390Z,57.5
2022-08-26T15:04:45.506Z,57
2022-08-26T15:05:51.629Z,57.5
2022-08-26T15:06:57.726Z,57.5
2022-08-26T15:08:03.853Z,57.5
2022-08-26T15:09:09.960Z,57.5
2022-08-26T15:10:16.084Z,57
2022-08-26T15:11:22.180Z,57
2022-08-26T15:12:28.291Z,57.5
2022-08-26T15:13:34.423Z,57.5
2022-08-26T15:14:40.527Z,57
2022-08-26T15:15:45.659Z,57.5
2022-08-26T15:17:57.890Z,57.5
2022-08-26T15:19:03.992Z,57.5
2022-08-26T15:20:10.109Z,57.5
2022-08-26T15:21:16.253Z,57.5
2022-08-26T15:22:22.338Z,57.5
2022-08-26T15:23:28.460Z,57.5
2022-08-26T15:24:33.589Z,57.5
2022-08-26T15:25:38.740Z,57.5
2022-08-26T15:26:44.853Z,57.5
2022-08-26T15:27:50.957Z,57.5
2022-08-26T15:28:57.070Z,57.5
2022-08-26T15:30:03.181Z,57.5
2022-08-26T15:31:09.295Z,57.5
2022-08-26T15:32:15.407Z,57.5
2022-08-26T15:33:21.522Z,57.5
2022-08-26T15:34:27.639Z,57.5
2022-08-26T15:35:33.751Z,57.5
2022-08-26T15:36:39.866Z,57.5
2022-08-26T15:37:45.985Z,57.5